sensor_id;sensor_type;location;lat;lon;timestamp;pressure;altitude;pressure_sealevel;temperature
76007;BMP280;64699;0.000;0.000;2023-05-29T00:00:08;100881.78;;;19.34
76007;BMP280;64699;0.000;0.000;2023-05-29T00:02:34;100884.03;;;19.36
76007;BMP280;64699;0.000;0.000;2023-05-29T00:04:59;100884.03;;;19.36
76007;BMP280;64699;0.000;0.000;2023-05-29T00:07:28;100878.53;;;19.36
76007;BMP280;64699;0.000;0.000;2023-05-29T00:09:53;100875.00;;;19.35
76007;BMP280;64699;0.000;0.000;2023-05-29T00:12:18;100880.53;;;19.35
76007;BMP280;64699;0.000;0.000;2023-05-29T00:14:43;100882.56;;;19.35
76007;BMP280;64699;0.000;0.000;2023-05-29T00:17:09;100883.28;;;19.35
76007;BMP280;64699;0.000;0.000;2023-05-29T00:19:34;100888.06;;;19.35
76007;BMP280;64699;0.000;0.000;2023-05-29T00:22:00;100877.25;;;19.37
76007;BMP280;64699;0.000;0.000;2023-05-29T00:24:25;100878.53;;;19.36
76007;BMP280;64699;0.000;0.000;2023-05-29T00:26:51;100877.03;;;19.35
76007;BMP280;64699;0.000;0.000;2023-05-29T00:29:16;100878.53;;;19.36
76007;BMP280;64699;0.000;0.000;2023-05-29T00:31:41;100884.78;;;19.36
76007;BMP280;64699;0.000;0.000;2023-05-29T00:34:07;100878.53;;;19.36
76007;BMP280;64699;0.000;0.000;2023-05-29T00:36:32;100887.31;;;19.34
76007;BMP280;64699;0.000;0.000;2023-05-29T00:38:58;100878.31;;;19.34
76007;BMP280;64699;0.000;0.000;2023-05-29T00:41:23;100872.81;;;19.34
76007;BMP280;64699;0.000;0.000;2023-05-29T00:43:48;100882.31;;;19.33
76007;BMP280;64699;0.000;0.000;2023-05-29T00:46:14;100885.09;;;19.33
76007;BMP280;64699;0.000;0.000;2023-05-29T00:48:43;100885.81;;;19.33
76007;BMP280;64699;0.000;0.000;2023-05-29T00:51:09;100878.06;;;19.32
76007;BMP280;64699;0.000;0.000;2023-05-29T00:53:35;100883.81;;;19.34
76007;BMP280;64699;0.000;0.000;2023-05-29T00:56:01;100884.47;;;19.40
76007;BMP280;64699;0.000;0.000;2023-05-29T00:58:27;100875.47;;;19.39
76007;BMP280;64699;0.000;0.000;2023-05-29T01:00:52;100879.25;;;19.36
76007;BMP280;64699;0.000;0.000;2023-05-29T01:03:18;100882.56;;;19.35
76007;BMP280;64699;0.000;0.000;2023-05-29T01:05:44;100877.56;;;19.33
76007;BMP280;64699;0.000;0.000;2023-05-29T01:08:11;100869.28;;;19.33
76007;BMP280;64699;0.000;0.000;2023-05-29T01:10:36;100876.06;;;19.32
76007;BMP280;64699;0.000;0.000;2023-05-29T01:28:52;100868.03;;;19.34
76007;BMP280;64699;0.000;0.000;2023-05-29T01:31:19;100874.06;;;19.33
76007;BMP280;64699;0.000;0.000;2023-05-29T01:33:51;100870.03;;;19.34
76007;BMP280;64699;0.000;0.000;2023-05-29T01:36:16;100871.31;;;19.33
76007;BMP280;64699;0.000;0.000;2023-05-29T01:38:42;100863.78;;;19.33
76007;BMP280;64699;0.000;0.000;2023-05-29T01:41:07;100868.56;;;19.33
76007;BMP280;64699;0.000;0.000;2023-05-29T01:43:32;100872.03;;;19.33
76007;BMP280;64699;0.000;0.000;2023-05-29T01:45:57;100876.81;;;19.33
76007;BMP280;64699;0.000;0.000;2023-05-29T01:48:23;100876.81;;;19.33
76007;BMP280;64699;0.000;0.000;2023-05-29T01:50:48;100871.53;;;19.35
76007;BMP280;64699;0.000;0.000;2023-05-29T01:53:13;100878.31;;;19.34
76007;BMP280;64699;0.000;0.000;2023-05-29T01:55:39;100871.53;;;19.35
76007;BMP280;64699;0.000;0.000;2023-05-29T01:58:04;100868.56;;;19.33
76007;BMP280;64699;0.000;0.000;2023-05-29T02:00:30;100868.56;;;19.33
76007;BMP280;64699;0.000;0.000;2023-05-29T02:02:55;100861.53;;;19.32
76007;BMP280;64699;0.000;0.000;2023-05-29T02:05:21;100862.81;;;19.31
76007;BMP280;64699;0.000;0.000;2023-05-29T02:07:46;100871.84;;;19.31
76007;BMP280;64699;0.000;0.000;2023-05-29T02:10:12;100865.56;;;19.31
76007;BMP280;64699;0.000;0.000;2023-05-29T02:12:37;100858.06;;;19.31
76007;BMP280;64699;0.000;0.000;2023-05-29T02:15:02;100857.84;;;19.29
76007;BMP280;64699;0.000;0.000;2023-05-29T02:17:27;100852.34;;;19.29
76007;BMP280;64699;0.000;0.000;2023-05-29T02:19:53;100847.56;;;19.30
76007;BMP280;64699;0.000;0.000;2023-05-29T02:22:18;100855.59;;;19.28
76007;BMP280;64699;0.000;0.000;2023-05-29T02:24:43;100857.09;;;19.29
76007;BMP280;64699;0.000;0.000;2023-05-29T02:27:08;100851.56;;;19.29
76007;BMP280;64699;0.000;0.000;2023-05-29T02:29:34;100845.31;;;19.28
76007;BMP280;64699;0.000;0.000;2023-05-29T02:31:59;100845.88;;;19.27
76007;BMP280;64699;0.000;0.000;2023-05-29T02:34:24;100840.56;;;19.29
76007;BMP280;64699;0.000;0.000;2023-05-29T02:36:50;100840.56;;;19.29
76007;BMP280;64699;0.000;0.000;2023-05-29T02:39:19;100839.28;;;19.30
76007;BMP280;64699;0.000;0.000;2023-05-29T02:41:45;100839.06;;;19.28
76007;BMP280;64699;0.000;0.000;2023-05-29T02:44:10;100833.78;;;19.30
76007;BMP280;64699;0.000;0.000;2023-05-29T02:46:36;100830.28;;;19.29
76007;BMP280;64699;0.000;0.000;2023-05-29T02:49:01;100839.78;;;19.28
76007;BMP280;64699;0.000;0.000;2023-05-29T02:51:26;100836.31;;;19.28
76007;BMP280;64699;0.000;0.000;2023-05-29T02:53:52;100839.06;;;19.28
76007;BMP280;64699;0.000;0.000;2023-05-29T02:56:17;100842.56;;;19.28
76007;BMP280;64699;0.000;0.000;2023-05-29T02:58:42;100843.13;;;19.27
76007;BMP280;64699;0.000;0.000;2023-05-29T03:01:08;100839.78;;;19.28
76007;BMP280;64699;0.000;0.000;2023-05-29T03:03:33;100840.56;;;19.29
76007;BMP280;64699;0.000;0.000;2023-05-29T03:05:59;100841.81;;;19.28
76007;BMP280;64699;0.000;0.000;2023-05-29T03:08:25;100845.88;;;19.27
76007;BMP280;64699;0.000;0.000;2023-05-29T03:10:53;100843.13;;;19.27
76007;BMP280;64699;0.000;0.000;2023-05-29T03:13:18;100840.34;;;19.27
76007;BMP280;64699;0.000;0.000;2023-05-29T03:15:43;100841.63;;;19.26
76007;BMP280;64699;0.000;0.000;2023-05-29T03:18:09;100840.13;;;19.25
76007;BMP280;64699;0.000;0.000;2023-05-29T03:20:34;100840.13;;;19.25
76007;BMP280;64699;0.000;0.000;2023-05-29T03:23:00;100840.13;;;19.25
76007;BMP280;64699;0.000;0.000;2023-05-29T03:25:25;100842.88;;;19.25
76007;BMP280;64699;0.000;0.000;2023-05-29T03:27:50;100849.13;;;19.25
76007;BMP280;64699;0.000;0.000;2023-05-29T03:30:16;100855.91;;;19.24
76007;BMP280;64699;0.000;0.000;2023-05-29T03:32:41;100854.41;;;19.23
76007;BMP280;64699;0.000;0.000;2023-05-29T03:35:06;100852.38;;;19.24
76007;BMP280;64699;0.000;0.000;2023-05-29T03:37:31;100855.16;;;19.24
76007;BMP280;64699;0.000;0.000;2023-05-29T03:39:57;100855.16;;;19.24
76007;BMP280;64699;0.000;0.000;2023-05-29T03:42:22;100849.63;;;19.24
76007;BMP280;64699;0.000;0.000;2023-05-29T03:44:47;100854.13;;;19.27
76007;BMP280;64699;0.000;0.000;2023-05-29T03:47:12;100856.88;;;19.27
76007;BMP280;64699;0.000;0.000;2023-05-29T03:49:37;100856.88;;;19.27
76007;BMP280;64699;0.000;0.000;2023-05-29T03:52:03;100855.41;;;19.26
76007;BMP280;64699;0.000;0.000;2023-05-29T03:54:28;100854.13;;;19.27
76007;BMP280;64699;0.000;0.000;2023-05-29T03:56:53;100856.13;;;19.26
76007;BMP280;64699;0.000;0.000;2023-05-29T03:59:19;100862.41;;;19.27
76007;BMP280;64699;0.000;0.000;2023-05-29T04:01:44;100869.16;;;19.26
76007;BMP280;64699;0.000;0.000;2023-05-29T04:04:09;100871.38;;;19.27
76007;BMP280;64699;0.000;0.000;2023-05-29T04:06:35;100876.19;;;19.27
76007;BMP280;64699;0.000;0.000;2023-05-29T04:09:03;100881.69;;;19.27
76007;BMP280;64699;0.000;0.000;2023-05-29T04:11:28;100881.69;;;19.27
76007;BMP280;64699;0.000;0.000;2023-05-29T04:13:54;100874.69;;;19.26
76007;BMP280;64699;0.000;0.000;2023-05-29T04:16:20;100879.44;;;19.25
76007;BMP280;64699;0.000;0.000;2023-05-29T04:18:45;100873.19;;;19.25
76007;BMP280;64699;0.000;0.000;2023-05-29T04:21:10;100873.19;;;19.25
76007;BMP280;64699;0.000;0.000;2023-05-29T04:23:36;100871.69;;;19.24
76007;BMP280;64699;0.000;0.000;2023-05-29T04:26:01;100867.69;;;19.25
76007;BMP280;64699;0.000;0.000;2023-05-29T04:28:27;100876.69;;;19.25
76007;BMP280;64699;0.000;0.000;2023-05-29T04:30:52;100876.69;;;19.25
76007;BMP280;64699;0.000;0.000;2023-05-29T04:33:17;100869.16;;;19.26
76007;BMP280;64699;0.000;0.000;2023-05-29T04:35:43;100880.19;;;19.26
76007;BMP280;64699;0.000;0.000;2023-05-29T04:38:08;100874.69;;;19.26
76007;BMP280;64699;0.000;0.000;2023-05-29T04:40:34;100877.44;;;19.26
76007;BMP280;64699;0.000;0.000;2023-05-29T04:43:01;100868.41;;;19.25
76007;BMP280;64699;0.000;0.000;2023-05-29T04:45:27;100867.69;;;19.25
76007;BMP280;64699;0.000;0.000;2023-05-29T04:47:52;100876.19;;;19.27
76007;BMP280;64699;0.000;0.000;2023-05-29T04:50:20;100870.66;;;19.27
76007;BMP280;64699;0.000;0.000;2023-05-29T04:52:45;100879.63;;;19.27
76007;BMP280;64699;0.000;0.000;2023-05-29T04:55:10;100872.13;;;19.28
76007;BMP280;64699;0.000;0.000;2023-05-29T04:57:36;100880.09;;;19.31
76007;BMP280;64699;0.000;0.000;2023-05-29T05:00:01;100873.69;;;19.55
76007;BMP280;64699;0.000;0.000;2023-05-29T05:02:29;100881.63;;;19.45
76007;BMP280;64699;0.000;0.000;2023-05-29T05:04:55;100877.91;;;19.43
76007;BMP280;64699;0.000;0.000;2023-05-29T05:07:20;100873.03;;;19.36
76007;BMP280;64699;0.000;0.000;2023-05-29T05:09:46;100874.06;;;19.33
76007;BMP280;64699;0.000;0.000;2023-05-29T05:12:11;100873.84;;;19.31
76007;BMP280;64699;0.000;0.000;2023-05-29T05:14:36;100873.63;;;19.29
76007;BMP280;64699;0.000;0.000;2023-05-29T05:17:01;100873.41;;;19.27
76007;BMP280;64699;0.000;0.000;2023-05-29T05:19:26;100880.19;;;19.26
76007;BMP280;64699;0.000;0.000;2023-05-29T05:21:52;100877.94;;;19.24
76007;BMP280;64699;0.000;0.000;2023-05-29T05:24:17;100882.69;;;19.24
76007;BMP280;64699;0.000;0.000;2023-05-29T05:26:42;100879.94;;;19.24
76007;BMP280;64699;0.000;0.000;2023-05-29T05:29:07;100866.16;;;19.24
76007;BMP280;64699;0.000;0.000;2023-05-29T05:31:33;100874.44;;;19.24
76007;BMP280;64699;0.000;0.000;2023-05-29T05:33:58;100872.97;;;19.23
76007;BMP280;64699;0.000;0.000;2023-05-29T05:36:23;100879.75;;;19.22
76007;BMP280;64699;0.000;0.000;2023-05-29T05:38:48;100879.00;;;19.21
76007;BMP280;64699;0.000;0.000;2023-05-29T05:41:14;100878.25;;;19.21
76007;BMP280;64699;0.000;0.000;2023-05-29T05:43:39;100869.03;;;19.18
76007;BMP280;64699;0.000;0.000;2023-05-29T05:46:04;100875.56;;;19.16
76007;BMP280;64699;0.000;0.000;2023-05-29T05:48:30;100881.41;;;19.12
76007;BMP280;64699;0.000;0.000;2023-05-29T05:50:55;100878.88;;;19.14
76007;BMP280;64699;0.000;0.000;2023-05-29T05:53:20;100868.56;;;19.15
76007;BMP280;64699;0.000;0.000;2023-05-29T05:55:46;100876.31;;;19.16
76007;BMP280;64699;0.000;0.000;2023-05-29T05:58:11;100873.56;;;19.16
76007;BMP280;64699;0.000;0.000;2023-05-29T06:00:36;100872.81;;;19.16
76007;BMP280;64699;0.000;0.000;2023-05-29T06:03:02;100871.56;;;19.17
76007;BMP280;64699;0.000;0.000;2023-05-29T06:05:28;100871.56;;;19.17
76007;BMP280;64699;0.000;0.000;2023-05-29T06:07:54;100869.56;;;19.17
76007;BMP280;64699;0.000;0.000;2023-05-29T06:10:19;100875.06;;;19.17
76007;BMP280;64699;0.000;0.000;2023-05-29T06:12:44;100875.06;;;19.17
76007;BMP280;64699;0.000;0.000;2023-05-29T06:15:10;100875.06;;;19.17
76007;BMP280;64699;0.000;0.000;2023-05-29T06:17:35;100877.06;;;19.17
76007;BMP280;64699;0.000;0.000;2023-05-29T06:20:00;100871.56;;;19.17
76007;BMP280;64699;0.000;0.000;2023-05-29T06:22:25;100872.31;;;19.17
76007;BMP280;64699;0.000;0.000;2023-05-29T06:24:51;100870.81;;;19.16
76007;BMP280;64699;0.000;0.000;2023-05-29T06:27:16;100868.81;;;19.17
76007;BMP280;64699;0.000;0.000;2023-05-29T06:29:42;100870.81;;;19.16
76007;BMP280;64699;0.000;0.000;2023-05-29T06:32:08;100874.31;;;19.17
76007;BMP280;64699;0.000;0.000;2023-05-29T06:34:33;100863.78;;;19.15
76007;BMP280;64699;0.000;0.000;2023-05-29T06:36:58;100872.06;;;19.15
76007;BMP280;64699;0.000;0.000;2023-05-29T06:39:23;100870.81;;;19.16
76007;BMP280;64699;0.000;0.000;2023-05-29T06:41:49;100864.56;;;19.16
76007;BMP280;64699;0.000;0.000;2023-05-29T06:44:14;100864.56;;;19.16
76007;BMP280;64699;0.000;0.000;2023-05-29T06:46:39;100870.81;;;19.16
76007;BMP280;64699;0.000;0.000;2023-05-29T06:49:05;100871.56;;;19.17
76007;BMP280;64699;0.000;0.000;2023-05-29T06:51:30;100874.81;;;19.15
76007;BMP280;64699;0.000;0.000;2023-05-29T06:53:57;100866.06;;;19.17
76007;BMP280;64699;0.000;0.000;2023-05-29T06:56:22;100867.53;;;19.17
76007;BMP280;64699;0.000;0.000;2023-05-29T06:58:47;100864.06;;;19.17
76007;BMP280;64699;0.000;0.000;2023-05-29T07:01:13;100859.78;;;19.16
76007;BMP280;64699;0.000;0.000;2023-05-29T07:03:38;100864.56;;;19.16
76007;BMP280;64699;0.000;0.000;2023-05-29T07:06:03;100870.81;;;19.16
76007;BMP280;64699;0.000;0.000;2023-05-29T07:08:29;100863.78;;;19.15
76007;BMP280;64699;0.000;0.000;2023-05-29T07:10:54;100871.34;;;19.15
76007;BMP280;64699;0.000;0.000;2023-05-29T07:13:19;100867.84;;;19.14
76007;BMP280;64699;0.000;0.000;2023-05-29T07:15:44;100871.88;;;19.13
76007;BMP280;64699;0.000;0.000;2023-05-29T07:18:10;100877.38;;;19.13
76007;BMP280;64699;0.000;0.000;2023-05-29T07:20:36;100870.38;;;19.12
76007;BMP280;64699;0.000;0.000;2023-05-29T07:23:01;100875.13;;;19.12
76007;BMP280;64699;0.000;0.000;2023-05-29T07:25:27;100875.88;;;19.12
76007;BMP280;64699;0.000;0.000;2023-05-29T07:27:52;100868.88;;;19.11
76007;BMP280;64699;0.000;0.000;2023-05-29T07:30:17;100867.44;;;19.10
76007;BMP280;64699;0.000;0.000;2023-05-29T07:32:43;100873.63;;;19.11
76007;BMP280;64699;0.000;0.000;2023-05-29T07:35:08;100869.41;;;19.10
76007;BMP280;64699;0.000;0.000;2023-05-29T07:37:34;100876.91;;;19.09
76007;BMP280;64699;0.000;0.000;2023-05-29T07:39:59;100872.19;;;19.10
76007;BMP280;64699;0.000;0.000;2023-05-29T07:42:25;100864.41;;;19.08
76007;BMP280;64699;0.000;0.000;2023-05-29T07:44:50;100872.69;;;19.08
76007;BMP280;64699;0.000;0.000;2023-05-29T07:47:15;100880.94;;;19.08
76007;BMP280;64699;0.000;0.000;2023-05-29T07:49:40;100886.44;;;19.08
76007;BMP280;64699;0.000;0.000;2023-05-29T07:52:06;100874.69;;;19.08
76007;BMP280;64699;0.000;0.000;2023-05-29T07:54:31;100873.94;;;19.07
76007;BMP280;64699;0.000;0.000;2023-05-29T07:56:58;100873.22;;;19.07
76007;BMP280;64699;0.000;0.000;2023-05-29T07:59:23;100879.44;;;19.07
76007;BMP280;64699;0.000;0.000;2023-05-29T08:01:48;100873.22;;;19.07
76007;BMP280;64699;0.000;0.000;2023-05-29T08:04:15;100869.00;;;19.06
76007;BMP280;64699;0.000;0.000;2023-05-29T08:06:41;100869.69;;;19.06
76007;BMP280;64699;0.000;0.000;2023-05-29T08:09:14;100869.69;;;19.06
76007;BMP280;64699;0.000;0.000;2023-05-29T08:11:44;100866.75;;;19.04
76007;BMP280;64699;0.000;0.000;2023-05-29T08:14:11;100867.47;;;19.05
76007;BMP280;64699;0.000;0.000;2023-05-29T08:16:36;100871.50;;;19.04
76007;BMP280;64699;0.000;0.000;2023-05-29T08:19:02;100864.00;;;19.04
76007;BMP280;64699;0.000;0.000;2023-05-29T08:21:27;100869.50;;;19.04
76007;BMP280;64699;0.000;0.000;2023-05-29T08:23:52;100872.25;;;19.04
76007;BMP280;64699;0.000;0.000;2023-05-29T08:26:17;100868.00;;;19.03
76007;BMP280;64699;0.000;0.000;2023-05-29T08:28:43;100858.47;;;19.04
76007;BMP280;64699;0.000;0.000;2023-05-29T08:31:08;100864.00;;;19.04
76007;BMP280;64699;0.000;0.000;2023-05-29T08:33:33;100871.50;;;19.04
76007;BMP280;64699;0.000;0.000;2023-05-29T08:35:58;100875.00;;;19.04
76007;BMP280;64699;0.000;0.000;2023-05-29T08:38:23;100879.75;;;19.04
76007;BMP280;64699;0.000;0.000;2023-05-29T08:40:51;100881.78;;;19.03
76007;BMP280;64699;0.000;0.000;2023-05-29T08:43:18;100879.03;;;19.03
76007;BMP280;64699;0.000;0.000;2023-05-29T08:45:45;100879.03;;;19.03
76007;BMP280;64699;0.000;0.000;2023-05-29T08:48:12;100884.53;;;19.03
76007;BMP280;64699;0.000;0.000;2023-05-29T08:50:40;100881.53;;;19.01
76007;BMP280;64699;0.000;0.000;2023-05-29T08:53:08;100865.75;;;19.02
76007;BMP280;64699;0.000;0.000;2023-05-29T08:55:33;100865.75;;;19.02
76007;BMP280;64699;0.000;0.000;2023-05-29T08:57:59;100865.75;;;19.02
76007;BMP280;64699;0.000;0.000;2023-05-29T09:00:24;100866.53;;;19.02
76007;BMP280;64699;0.000;0.000;2023-05-29T09:02:53;100867.25;;;19.03
76007;BMP280;64699;0.000;0.000;2023-05-29T09:05:20;100866.53;;;19.02
76007;BMP280;64699;0.000;0.000;2023-05-29T09:07:46;100866.53;;;19.02
76007;BMP280;64699;0.000;0.000;2023-05-29T09:10:12;100856.75;;;19.01
76007;BMP280;64699;0.000;0.000;2023-05-29T09:12:38;100864.28;;;19.01
76007;BMP280;64699;0.000;0.000;2023-05-29T09:15:07;100863.00;;;19.02
76007;BMP280;64699;0.000;0.000;2023-05-29T09:17:42;100862.28;;;19.01
76007;BMP280;64699;0.000;0.000;2023-05-29T09:20:14;100851.25;;;19.01
76007;BMP280;64699;0.000;0.000;2023-05-29T09:22:42;100856.75;;;19.01
76007;BMP280;64699;0.000;0.000;2023-05-29T09:25:07;100850.53;;;19.01
76007;BMP280;64699;0.000;0.000;2023-05-29T09:27:38;100845.53;;;18.99
76007;BMP280;64699;0.000;0.000;2023-05-29T09:30:03;100852.53;;;19.00
76007;BMP280;64699;0.000;0.000;2023-05-29T09:32:28;100853.78;;;18.99
76007;BMP280;64699;0.000;0.000;2023-05-29T09:34:59;100846.28;;;19.00
76007;BMP280;64699;0.000;0.000;2023-05-29T09:37:24;100849.78;;;19.00
76007;BMP280;64699;0.000;0.000;2023-05-29T09:39:50;100836.75;;;19.01
76007;BMP280;64699;0.000;0.000;2023-05-29T09:42:18;100844.25;;;19.00
76007;BMP280;64699;0.000;0.000;2023-05-29T09:44:45;100845.75;;;19.01
76007;BMP280;64699;0.000;0.000;2023-05-29T09:47:16;100847.00;;;19.00
76007;BMP280;64699;0.000;0.000;2023-05-29T09:49:42;100846.28;;;19.00
76007;BMP280;64699;0.000;0.000;2023-05-29T09:52:08;100842.78;;;18.99
76007;BMP280;64699;0.000;0.000;2023-05-29T09:54:34;100829.00;;;18.99
76007;BMP280;64699;0.000;0.000;2023-05-29T09:57:00;100834.50;;;18.99
76007;BMP280;64699;0.000;0.000;2023-05-29T09:59:26;100833.78;;;18.99
76007;BMP280;64699;0.000;0.000;2023-05-29T10:02:09;100838.53;;;18.98
76007;BMP280;64699;0.000;0.000;2023-05-29T10:04:37;100846.78;;;18.98
76007;BMP280;64699;0.000;0.000;2023-05-29T10:07:17;100833.03;;;18.98
76007;BMP280;64699;0.000;0.000;2023-05-29T10:09:45;100838.53;;;18.98
76007;BMP280;64699;0.000;0.000;2023-05-29T10:12:13;100833.03;;;18.98
76007;BMP280;64699;0.000;0.000;2023-05-29T10:14:40;100832.28;;;18.98
76007;BMP280;64699;0.000;0.000;2023-05-29T10:17:07;100832.28;;;18.98
76007;BMP280;64699;0.000;0.000;2023-05-29T10:19:33;100826.78;;;18.98
76007;BMP280;64699;0.000;0.000;2023-05-29T10:22:01;100834.28;;;18.97
76007;BMP280;64699;0.000;0.000;2023-05-29T10:24:26;100827.31;;;18.96
76007;BMP280;64699;0.000;0.000;2023-05-29T10:26:52;100821.81;;;18.96
76007;BMP280;64699;0.000;0.000;2023-05-29T10:32:01;100822.53;;;18.97
76007;BMP280;64699;0.000;0.000;2023-05-29T10:37:32;100825.28;;;18.97
76007;BMP280;64699;0.000;0.000;2023-05-29T10:40:05;100824.56;;;18.96
76007;BMP280;64699;0.000;0.000;2023-05-29T10:42:47;100821.06;;;18.96
76007;BMP280;64699;0.000;0.000;2023-05-29T10:50:41;100812.06;;;18.95
76007;BMP280;64699;0.000;0.000;2023-05-29T10:53:10;100819.56;;;18.95
76007;BMP280;64699;0.000;0.000;2023-05-29T10:55:36;100823.06;;;18.95
76007;BMP280;64699;0.000;0.000;2023-05-29T10:58:08;100820.31;;;18.95
76007;BMP280;64699;0.000;0.000;2023-05-29T11:00:34;100812.06;;;18.95
76007;BMP280;64699;0.000;0.000;2023-05-29T11:03:06;100800.28;;;18.95
76007;BMP280;64699;0.000;0.000;2023-05-29T11:05:32;100787.28;;;18.95
76007;BMP280;64699;0.000;0.000;2023-05-29T11:08:00;100796.28;;;18.96
76007;BMP280;64699;0.000;0.000;2023-05-29T11:10:43;100794.03;;;18.94
76007;BMP280;64699;0.000;0.000;2023-05-29T11:13:22;100789.28;;;18.95
76007;BMP280;64699;0.000;0.000;2023-05-29T11:15:48;100783.75;;;18.95
76007;BMP280;64699;0.000;0.000;2023-05-29T11:18:13;100779.00;;;18.95
76007;BMP280;64699;0.000;0.000;2023-05-29T11:20:43;100783.75;;;18.95
76007;BMP280;64699;0.000;0.000;2023-05-29T11:23:09;100785.25;;;18.96
76007;BMP280;64699;0.000;0.000;2023-05-29T11:25:41;100784.53;;;18.95
76007;BMP280;64699;0.000;0.000;2023-05-29T11:28:09;100783.75;;;18.95
76007;BMP280;64699;0.000;0.000;2023-05-29T11:30:45;100783.75;;;18.95
76007;BMP280;64699;0.000;0.000;2023-05-29T11:33:14;100779.00;;;18.95
76007;BMP280;64699;0.000;0.000;2023-05-29T11:35:41;100773.50;;;18.95
76007;BMP280;64699;0.000;0.000;2023-05-29T11:38:06;100781.78;;;18.95
76007;BMP280;64699;0.000;0.000;2023-05-29T11:40:40;100775.00;;;18.96
76007;BMP280;64699;0.000;0.000;2023-05-29T11:43:05;100776.47;;;18.97
76007;BMP280;64699;0.000;0.000;2023-05-29T11:45:32;100781.97;;;18.97
76007;BMP280;64699;0.000;0.000;2023-05-29T11:47:58;100773.72;;;18.97
76007;BMP280;64699;0.000;0.000;2023-05-29T11:52:49;100768.19;;;18.97
76007;BMP280;64699;0.000;0.000;2023-05-29T11:55:14;100770.94;;;18.97
76007;BMP280;64699;0.000;0.000;2023-05-29T11:57:39;100771.72;;;18.98
76007;BMP280;64699;0.000;0.000;2023-05-29T12:00:05;100766.19;;;18.98
76007;BMP280;64699;0.000;0.000;2023-05-29T12:02:37;100772.44;;;18.98
76007;BMP280;64699;0.000;0.000;2023-05-29T12:05:03;100768.19;;;18.97
76007;BMP280;64699;0.000;0.000;2023-05-29T12:07:29;100771.19;;;18.99
76007;BMP280;64699;0.000;0.000;2023-05-29T12:09:54;100761.59;;;19.06
76007;BMP280;64699;0.000;0.000;2023-05-29T12:12:23;100766.13;;;19.03
76007;BMP280;64699;0.000;0.000;2023-05-29T12:14:51;100755.59;;;19.02
76007;BMP280;64699;0.000;0.000;2023-05-29T12:17:16;100765.16;;;19.01
76007;BMP280;64699;0.000;0.000;2023-05-29T12:19:42;100755.50;;;18.94
76007;BMP280;64699;0.000;0.000;2023-05-29T12:22:07;100752.22;;;18.64
76007;BMP280;64699;0.000;0.000;2023-05-29T12:24:34;100750.88;;;18.52
76007;BMP280;64699;0.000;0.000;2023-05-29T12:26:59;100746.63;;;18.51
76007;BMP280;64699;0.000;0.000;2023-05-29T12:29:32;100750.16;;;18.52
76007;BMP280;64699;0.000;0.000;2023-05-29T12:31:58;100743.13;;;18.69
76007;BMP280;64699;0.000;0.000;2023-05-29T12:34:24;100743.47;;;18.79
76007;BMP280;64699;0.000;0.000;2023-05-29T12:36:49;100742.09;;;18.85
76007;BMP280;64699;0.000;0.000;2023-05-29T12:39:15;100735.59;;;18.88
76007;BMP280;64699;0.000;0.000;2023-05-29T12:41:40;100735.78;;;18.90
76007;BMP280;64699;0.000;0.000;2023-05-29T12:44:06;100734.50;;;18.91
76007;BMP280;64699;0.000;0.000;2023-05-29T12:46:41;100731.97;;;18.93
76007;BMP280;64699;0.000;0.000;2023-05-29T12:49:16;100720.94;;;18.93
76007;BMP280;64699;0.000;0.000;2023-05-29T12:51:42;100733.47;;;18.94
76007;BMP280;64699;0.000;0.000;2023-05-29T12:54:10;100725.22;;;18.94
76007;BMP280;64699;0.000;0.000;2023-05-29T12:56:36;100729.97;;;18.94
76007;BMP280;64699;0.000;0.000;2023-05-29T12:59:01;100730.72;;;18.94
76007;BMP280;64699;0.000;0.000;2023-05-29T13:01:26;100722.47;;;18.94
76007;BMP280;64699;0.000;0.000;2023-05-29T13:03:52;100729.97;;;18.94
76007;BMP280;64699;0.000;0.000;2023-05-29T13:06:17;100727.97;;;18.94
76007;BMP280;64699;0.000;0.000;2023-05-29T13:08:42;100728.69;;;18.95
76007;BMP280;64699;0.000;0.000;2023-05-29T13:11:08;100719.72;;;18.94
76007;BMP280;64699;0.000;0.000;2023-05-29T13:13:33;100714.19;;;18.94
76007;BMP280;64699;0.000;0.000;2023-05-29T13:15:58;100706.66;;;18.95
76007;BMP280;64699;0.000;0.000;2023-05-29T13:18:23;100706.66;;;18.95
76007;BMP280;64699;0.000;0.000;2023-05-29T13:20:49;100707.44;;;18.95
76007;BMP280;64699;0.000;0.000;2023-05-29T13:23:14;100712.94;;;18.95
76007;BMP280;64699;0.000;0.000;2023-05-29T13:25:42;100701.91;;;18.95
76007;BMP280;64699;0.000;0.000;2023-05-29T13:28:07;100702.66;;;18.96
76007;BMP280;64699;0.000;0.000;2023-05-29T13:30:32;100697.16;;;18.96
76007;BMP280;64699;0.000;0.000;2023-05-29T13:32:58;100697.91;;;18.96
76007;BMP280;64699;0.000;0.000;2023-05-29T13:35:23;100697.91;;;18.96
76007;BMP280;64699;0.000;0.000;2023-05-29T13:37:48;100698.63;;;18.97
76007;BMP280;64699;0.000;0.000;2023-05-29T13:40:14;100703.41;;;18.96
76007;BMP280;64699;0.000;0.000;2023-05-29T13:42:39;100703.41;;;18.96
76007;BMP280;64699;0.000;0.000;2023-05-29T13:45:05;100693.13;;;18.97
76007;BMP280;64699;0.000;0.000;2023-05-29T13:47:32;100701.38;;;18.97
76007;BMP280;64699;0.000;0.000;2023-05-29T13:49:57;100703.59;;;18.98
76007;BMP280;64699;0.000;0.000;2023-05-29T13:52:23;100701.59;;;18.99
76007;BMP280;64699;0.000;0.000;2023-05-29T13:54:48;100702.13;;;18.97
76007;BMP280;64699;0.000;0.000;2023-05-29T13:57:13;100695.34;;;18.98
76007;BMP280;64699;0.000;0.000;2023-05-29T13:59:38;100712.63;;;18.99
76007;BMP280;64699;0.000;0.000;2023-05-29T14:02:04;100706.34;;;18.98
76007;BMP280;64699;0.000;0.000;2023-05-29T14:04:30;100692.59;;;18.98
76007;BMP280;64699;0.000;0.000;2023-05-29T14:06:55;100695.34;;;18.98
76007;BMP280;64699;0.000;0.000;2023-05-29T14:09:24;100697.38;;;18.98
76007;BMP280;64699;0.000;0.000;2023-05-29T14:11:55;100695.34;;;18.98
76007;BMP280;64699;0.000;0.000;2023-05-29T14:14:21;100685.81;;;18.99
76007;BMP280;64699;0.000;0.000;2023-05-29T14:16:46;100699.59;;;18.99
76007;BMP280;64699;0.000;0.000;2023-05-29T14:19:11;100690.59;;;18.99
76007;BMP280;64699;0.000;0.000;2023-05-29T14:21:37;100677.56;;;18.99
76007;BMP280;64699;0.000;0.000;2023-05-29T14:24:02;100691.31;;;18.99
76007;BMP280;64699;0.000;0.000;2023-05-29T14:26:28;100682.34;;;18.99
76007;BMP280;64699;0.000;0.000;2023-05-29T14:28:53;100678.09;;;18.98
76007;BMP280;64699;0.000;0.000;2023-05-29T14:31:18;100678.81;;;18.98